Wednesday, January 17, 2018, 8:21 AM EST
Back to Local

KACK, Nantucket Memorial Airport

Location: Nantucket, MA, United States Lat: 41.25
Local Time: 8:21 AM EST (13:21 GMT) Lon: -70.067
Time Zone: US/Eastern Elev: 49 ft

Show me the last for .
Show Decoded

2018-01-17 07:53 METAR KACK 171253Z 04008KT 7SM OVC007 03/03 A3025 RMK AO2 RAB20E38 SLP242 P0000
                 T00330033 =
2018-01-17 06:53 METAR KACK 171153Z 06009KT 10SM BKN008 OVC046 03/03 A3025 RMK AO2 RAE41UPB41E44
                 SLP242 P0001 60017 70017 T00280028 10028 20006 58029 =
2018-01-17 06:39 METAR KACK 171139Z 05010KT 10SM -RA SCT007 OVC050 02/02 A3025 RMK AO2 P0001
                 T00220022 =
2018-01-17 05:53 METAR KACK 171053Z 04008KT 8SM -RA OVC044 02/02 A3028 RMK AO2 SLP255 P0004
                 T00170017 =
2018-01-17 04:53 METAR KACK 170953Z AUTO 05007KT 10SM -RA FEW026 OVC042 01/01 A3031 RMK AO2
                 RAB06SNE06 PRESFR SLP263 P0004 T00060006 TSNO =
2018-01-17 03:53 METAR KACK 170853Z AUTO 02005KT 3SM -SN BR FEW016 FEW024 OVC033 01/01 A3033 RMK
                 AO2 SLP272 P0005 60008 T00060006 58020 TSNO =
2018-01-17 03:37 METAR KACK 170837Z AUTO 02005KT 6SM -SN BR OVC033 01/01 A3034 RMK AO2 P0002
                 T00060006 TSNO =
2018-01-17 02:53 METAR KACK 170753Z AUTO 02006KT 6SM -SN BR FEW011 FEW018 OVC025 01/01 A3036 RMK
                 AO2 SLP281 P0002 T00060006 TSNO =
2018-01-17 01:53 METAR KACK 170653Z AUTO 13005KT 6SM -SN BR FEW016 FEW021 OVC025 01/01 A3039 RMK
                 AO2 SLP291 P0001 T00110006 TSNO =
2018-01-17 01:29 METAR KACK 170629Z AUTO 12007KT 8SM -SN SCT021 OVC029 01/01 A3038 RMK AO2 P0000
                 T00110006 TSNO =
2018-01-17 00:53 METAR KACK 170553Z AUTO 13007KT 9SM -SN BKN034 OVC042 02/00 A3039 RMK AO2 SNB28
                 SLP292 P0000 60000 T00170000 10017 21017 56023 TSNO =
2018-01-16 23:53 METAR KACK 170453Z AUTO 13009KT 10SM BKN050 OVC075 02/M01 A3040 RMK AO2 SLP294
                 T00171006 400281022 TSNO =
2018-01-16 22:53 METAR KACK 170353Z AUTO 12003KT 10SM OVC065 00/M01 A3044 RMK AO2 SLP307
                 T00001011 TSNO =
2018-01-16 21:53 METAR KACK 170253Z AUTO 00000KT 10SM OVC080 01/M02 A3046 RMK AO2 SLP315
                 T00061017 55005 TSNO =
2018-01-16 20:53 METAR KACK 170153Z 03005KT 10SM OVC080 M01/M02 A3045 RMK AO2 SLP310 T10061017 =
2018-01-16 19:53 METAR KACK 170053Z 00000KT 10SM OVC085 M01/M02 A3048 RMK AO2 SLP320 T10061022 =
2018-01-16 18:53 METAR KACK 162353Z 13003KT 10SM OVC090 M02/M03 A3048 RMK AO2 SLP320 T10171033
                 10028 21022 50003 =
2018-01-16 17:53 METAR KACK 162253Z 10003KT 10SM CLR M02/M03 A3048 RMK AO2 SLP321 T10171033 =
2018-01-16 16:53 METAR KACK 162153Z 00000KT 10SM CLR 01/M03 A3048 RMK AO2 SLP322 T00061033 =
2018-01-16 15:53 METAR KACK 162053Z 13005KT 10SM CLR 01/M03 A3047 RMK AO2 SLP317 T00061028 58002
                 =
2018-01-16 14:53 METAR KACK 161953Z 13004KT 10SM CLR 02/M03 A3048 RMK AO2 SLP319 T00221028 =
2018-01-16 13:53 METAR KACK 161853Z 14008KT 10SM CLR 02/M03 A3047 RMK AO2 SLP319 T00221028 =
2018-01-16 12:53 METAR KACK 161753Z 17004KT 10SM CLR 02/M02 A3048 RMK AO2 SLP320 T00221022 10028
                 21017 58017 =
2018-01-16 11:53 METAR KACK 161653Z 31003KT 10SM CLR 03/M02 A3049 RMK AO2 SLP326 T00281022 =
2018-01-16 10:53 METAR KACK 161553Z VRB04KT 10SM CLR 02/M03 A3053 RMK AO2 SLP337 T00171028 =
2018-01-16 09:53 METAR KACK 161453Z 02009KT 10SM CLR 01/M02 A3053 RMK AO2 SLP337 T00061022 51008
                 =
2018-01-16 08:53 METAR KACK 161353Z 01010KT 10SM CLR 00/M02 A3053 RMK AO2 SLP336 T00001022 =

Support USWX by starting your Amazon purchase here.